Time;durP1;ratioP1;P1;durP2;ratioP2;P2;SDS_P1;SDS_P2;PMS_P1;PMS_P2;Temp;Humidity;BMP_temperature;BMP_pressure;BME280_temperature;BME280_humidity;BME280_pressure;Samples;Min_cycle;Max_cycle;Signal;HPM_P1;HPM_P2
2023/03/10 18:33:49;;;;;;;1.40;1.30;;;3.60;99.90;;;4.21;100.00;96403.47;5074320;27;20586;-74
2023/03/10 18:36:22;;;;;;;1.23;1.13;;;3.60;99.90;;;4.17;100.00;96412.56;5053310;28;20457;-74
2023/03/10 18:38:52;;;;;;;1.50;1.27;;;3.60;99.90;;;4.25;100.00;96421.00;5053466;28;20455;-75
2023/03/10 18:41:25;;;;;;;1.63;1.53;;;3.70;99.90;;;4.27;100.00;96411.25;5053053;28;20469;-75
2023/03/10 18:43:54;;;;;;;1.40;1.30;;;3.80;99.90;;;4.25;100.00;96421.00;5052535;28;20470;-75
2023/03/10 18:46:25;;;;;;;7.43;1.83;;;3.80;99.90;;;4.14;100.00;96418.94;5052146;28;20463;-75
2023/03/10 18:48:55;;;;;;;2.40;1.40;;;3.70;99.90;;;4.14;100.00;96462.91;5050365;28;20573;-75
2023/03/10 18:51:27;;;;;;;1.83;1.63;;;3.70;99.90;;;4.08;100.00;96481.75;5052357;28;20505;-75
2023/03/10 18:53:56;;;;;;;1.80;1.70;;;3.60;99.90;;;4.12;100.00;96511.44;5050983;28;20556;-75
2023/03/10 18:56:27;;;;;;;2.23;1.40;;;3.70;99.90;;;4.19;100.00;96486.44;5049358;28;20551;-75
2023/03/10 18:58:57;;;;;;;2.27;2.03;;;3.80;99.90;;;4.19;100.00;96507.13;5049005;28;20503;-76
2023/03/10 19:01:27;;;;;;;1.80;1.67;;;3.80;99.90;;;4.15;100.00;96492.16;5050588;28;20459;-75
2023/03/10 19:03:59;;;;;;;2.73;1.67;;;3.90;99.90;;;4.25;100.00;96497.81;5050276;28;20971;-75
2023/03/10 19:06:33;;;;;;;1.63;1.53;;;3.80;99.90;;;4.35;100.00;96514.63;5053143;28;20474;-75
2023/03/10 19:09:07;;;;;;;2.70;1.97;;;3.90;99.90;;;4.43;100.00;96535.22;5050278;28;20473;-75
2023/03/10 19:11:37;;;;;;;2.23;1.67;;;4.00;99.90;;;4.39;100.00;96528.78;5054121;28;20909;-75
2023/03/10 19:14:08;;;;;;;2.03;1.30;;;4.00;99.90;;;4.28;100.00;96555.16;5052517;28;20456;-75
2023/03/10 19:16:39;;;;;;;3.03;1.67;;;3.90;99.90;;;4.20;100.00;96575.19;5054663;28;20468;-75
2023/03/10 19:19:09;;;;;;;1.80;1.60;;;3.80;99.90;;;4.30;100.00;96562.75;5049502;28;20459;-75
2023/03/10 19:21:39;;;;;;;2.30;1.80;;;3.90;99.90;;;4.35;100.00;96587.06;5049664;28;20466;-75
2023/03/10 19:24:10;;;;;;;1.30;1.20;;;3.90;99.90;;;4.30;100.00;96584.25;5051540;28;20891;-75
2023/03/10 19:26:39;;;;;;;1.30;1.20;;;3.90;99.90;;;4.33;100.00;96596.00;5051446;28;20955;-75
2023/03/10 19:29:09;;;;;;;2.13;1.40;;;3.90;99.90;;;4.19;100.00;96633.88;5052242;28;20481;-74
2023/03/10 19:31:39;;;;;;;1.40;1.30;;;3.80;99.90;;;4.18;100.00;96611.56;5053819;28;20850;-75
2023/03/10 19:34:10;;;;;;;1.50;1.30;;;3.70;99.90;;;4.15;100.00;96653.31;5054354;28;20503;-75
2023/03/10 19:36:41;;;;;;;1.40;1.20;;;3.80;99.90;;;4.19;100.00;96618.34;5052142;28;20468;-75
2023/03/10 19:39:13;;;;;;;1.50;1.27;;;3.70;99.90;;;4.16;100.00;96647.16;5050786;28;20464;-75
2023/03/10 19:41:42;;;;;;;1.30;1.20;;;3.70;99.90;;;4.16;100.00;96662.69;5051463;28;20860;-75
2023/03/10 19:44:12;;;;;;;1.67;1.27;;;3.70;99.90;;;4.18;100.00;96662.50;5041096;28;20476;-75
2023/03/10 19:46:42;;;;;;;1.17;1.07;;;3.80;99.90;;;4.22;100.00;96649.03;5035368;28;20520;-75
2023/03/10 19:49:12;;;;;;;1.63;1.27;;;3.70;99.90;;;4.06;100.00;96644.06;5038391;28;21006;-75
2023/03/10 19:51:41;;;;;;;1.20;1.10;;;3.60;99.90;;;4.14;100.00;96676.75;5036991;28;20505;-75
2023/03/10 19:54:10;;;;;;;1.90;1.33;;;3.70;99.90;;;4.05;100.00;96683.84;5034126;28;21136;-75
2023/03/10 19:56:39;;;;;;;1.10;1.00;;;3.60;99.90;;;4.09;100.00;96673.94;5036866;28;20480;-75
2023/03/10 19:59:08;;;;;;;2.40;1.87;;;3.60;99.90;;;4.03;100.00;96696.13;5032870;28;20520;-75
2023/03/10 20:01:40;;;;;;;1.20;1.10;;;3.60;99.90;;;4.13;100.00;96732.09;5033892;28;20472;-75
2023/03/10 20:04:12;;;;;;;1.10;1.00;;;3.70;99.90;;;4.03;100.00;96737.50;5035111;28;20463;-74
2023/03/10 20:06:41;;;;;;;1.13;1.00;;;3.60;99.90;;;4.01;100.00;96723.97;5034744;28;20461;-75
2023/03/10 20:09:11;;;;;;;1.30;1.20;;;3.60;99.90;;;4.07;100.00;96712.91;5036500;28;20495;-75
2023/03/10 20:11:41;;;;;;;1.23;1.13;;;3.60;99.90;;;4.12;100.00;96731.28;5033538;28;20479;-75
2023/03/10 20:14:11;;;;;;;1.57;1.30;;;3.70;99.90;;;4.04;100.00;96733.94;5034400;28;20508;-75
2023/03/10 20:16:40;;;;;;;1.30;1.20;;;3.70;99.90;;;4.04;100.00;96718.44;5035806;28;20564;-75
2023/03/10 20:19:09;;;;;;;1.67;1.30;;;3.70;99.90;;;4.06;100.00;96744.94;5037016;28;20504;-75
2023/03/10 20:21:40;;;;;;;1.27;1.17;;;3.60;99.90;;;4.09;100.00;96752.34;5036189;28;20561;-75
2023/03/10 20:24:10;;;;;;;1.20;1.10;;;3.60;99.90;;;3.99;100.00;96746.63;5035546;28;20501;-75
2023/03/10 20:26:42;;;;;;;0.87;0.87;;;3.50;99.90;;;4.02;100.00;96741.09;5035377;28;20463;-74
2023/03/10 20:29:14;;;;;;;1.37;1.27;;;3.60;99.90;;;4.03;100.00;96758.19;5035436;28;20465;-75
2023/03/10 20:31:43;;;;;;;4.10;1.20;;;3.60;99.90;;;4.02;100.00;96777.28;5035861;28;20484;-75
2023/03/10 20:34:20;;;;;;;1.23;1.00;;;3.60;99.90;;;4.01;100.00;96802.34;5035192;28;20503;-74
2023/03/10 20:36:52;;;;;;;1.00;0.90;;;3.60;99.90;;;4.05;100.00;96808.78;5034120;28;21054;-75
2023/03/10 20:39:22;;;;;;;1.10;1.00;;;3.60;99.90;;;3.98;100.00;96797.53;5035860;28;20926;-75
2023/03/10 20:41:51;;;;;;;1.43;1.33;;;3.50;99.90;;;3.99;100.00;96821.63;5036281;28;20989;-75
2023/03/10 20:44:21;;;;;;;1.20;1.10;;;3.60;99.90;;;3.98;100.00;96838.09;5034337;28;20460;-74
2023/03/10 20:46:50;;;;;;;1.27;1.10;;;3.60;99.90;;;4.02;100.00;96839.38;5033096;28;20500;-75
2023/03/10 20:49:20;;;;;;;0.90;0.90;;;3.60;99.90;;;3.94;100.00;96852.34;5037339;28;20531;-76
2023/03/10 20:51:51;;;;;;;1.13;1.03;;;3.60;99.90;;;3.91;100.00;96850.94;5034057;28;20462;-76
2023/03/10 20:54:21;;;;;;;1.50;1.20;;;3.50;99.90;;;3.91;100.00;96861.28;5034483;28;20986;-75
2023/03/10 20:56:52;;;;;;;1.13;1.03;;;3.40;99.90;;;3.93;100.00;96871.41;5033996;28;20463;-75
2023/03/10 20:59:22;;;;;;;7.33;4.23;;;3.50;99.90;;;3.94;100.00;96867.88;5033583;28;20514;-75
2023/03/10 21:01:51;;;;;;;1.30;1.20;;;3.50;99.90;;;3.92;100.00;96868.03;5036888;28;20465;-74
2023/03/10 21:04:21;;;;;;;3.37;1.67;;;3.50;99.90;;;3.91;100.00;96873.41;5033151;28;20813;-75
2023/03/10 21:06:53;;;;;;;2.07;1.07;;;3.50;99.90;;;3.89;100.00;96888.25;5033407;28;20558;-73
2023/03/10 21:09:22;;;;;;;1.30;1.20;;;3.50;99.90;;;3.91;100.00;96875.97;5032956;28;21249;-75
2023/03/10 21:11:52;;;;;;;5.50;0.90;;;3.50;99.90;;;3.83;100.00;96876.84;5033638;28;20559;-74
2023/03/10 21:14:20;;;;;;;1.00;0.90;;;3.50;99.90;;;3.88;100.00;96882.31;5037106;28;20516;-75
2023/03/10 21:16:49;;;;;;;0.80;0.80;;;3.50;99.90;;;3.88;100.00;96905.56;5039304;28;20941;-75
2023/03/10 21:19:19;;;;;;;1.00;1.00;;;3.40;99.90;;;3.86;100.00;96907.50;5037274;28;20526;-75
2023/03/10 21:21:49;;;;;;;1.43;1.10;;;3.40;99.90;;;3.82;100.00;96902.84;5035242;28;20983;-75
2023/03/10 21:24:19;;;;;;;1.00;0.90;;;3.40;99.90;;;3.88;100.00;96917.69;5037699;28;20479;-75
2023/03/10 21:26:49;;;;;;;1.00;0.90;;;3.50;99.90;;;3.89;100.00;96907.16;5036042;28;21237;-75
2023/03/10 21:29:18;;;;;;;1.03;0.90;;;3.40;99.90;;;3.86;100.00;96901.53;5037218;28;20563;-75
2023/03/10 21:31:46;;;;;;;1.10;1.00;;;3.40;99.90;;;3.88;100.00;96915.91;5036138;28;20560;-75
2023/03/10 21:34:15;;;;;;;0.90;0.90;;;3.50;99.90;;;3.80;100.00;96917.75;5035419;28;20534;-75
2023/03/10 21:36:44;;;;;;;1.73;0.90;;;3.40;99.90;;;3.67;100.00;96933.03;5035517;28;20552;-75
2023/03/10 21:39:13;;;;;;;1.17;0.83;;;3.30;99.90;;;3.57;100.00;96942.78;5039674;28;20460;-75
2023/03/10 21:41:45;;;;;;;0.80;0.80;;;3.20;99.90;;;3.61;100.00;96960.34;5036195;28;20861;-75
2023/03/10 21:44:13;;;;;;;0.80;0.80;;;3.20;99.90;;;3.66;100.00;96967.59;5036432;28;20492;-75
2023/03/10 21:46:43;;;;;;;0.90;0.90;;;3.20;99.90;;;3.69;100.00;96993.09;5033792;28;20477;-75
2023/03/10 21:49:12;;;;;;;1.73;1.20;;;3.20;99.90;;;3.68;100.00;96981.16;5035175;28;20962;-75
2023/03/10 21:51:43;;;;;;;2.40;0.90;;;3.30;99.90;;;3.61;100.00;96980.25;5032663;28;20473;-75
2023/03/10 21:54:12;;;;;;;1.27;0.80;;;3.20;99.90;;;3.63;100.00;96973.91;5032036;28;20542;-75
2023/03/10 21:56:41;;;;;;;0.90;0.90;;;3.20;99.90;;;3.54;100.00;96988.66;5035753;28;20556;-75
2023/03/10 21:59:12;;;;;;;1.07;0.97;;;3.10;99.90;;;3.50;100.00;96995.16;5035468;28;20484;-75
2023/03/10 22:01:42;;;;;;;1.23;1.10;;;3.10;99.90;;;3.50;100.00;96994.34;5033890;28;20477;-75
2023/03/10 22:04:13;;;;;;;1.93;1.10;;;3.10;99.90;;;3.39;100.00;97008.44;5031757;28;20456;-75
2023/03/10 22:06:42;;;;;;;1.00;0.90;;;3.00;99.90;;;3.43;100.00;97003.75;5032771;28;20522;-74
2023/03/10 22:09:12;;;;;;;1.50;0.90;;;3.00;99.90;;;3.39;100.00;97021.34;5033593;28;20463;-75
2023/03/10 22:11:41;;;;;;;0.97;0.90;;;3.00;99.90;;;3.41;100.00;97031.50;5031996;28;20550;-75
2023/03/10 22:14:13;;;;;;;0.90;0.87;;;2.90;99.90;;;3.33;100.00;97028.97;5032401;28;20581;-75
2023/03/10 22:16:42;;;;;;;0.80;0.80;;;2.80;99.90;;;3.36;100.00;97044.13;5034073;28;20546;-75
2023/03/10 22:19:12;;;;;;;1.10;1.00;;;2.90;99.90;;;3.31;100.00;97047.22;5033545;28;20546;-74
2023/03/10 22:21:42;;;;;;;0.80;0.80;;;2.90;99.90;;;3.26;100.00;97040.94;5035372;28;20985;-75
2023/03/10 22:24:12;;;;;;;1.07;0.97;;;2.80;99.90;;;3.25;100.00;97054.81;5032693;28;20519;-76
2023/03/10 22:26:42;;;;;;;0.80;0.80;;;2.80;99.90;;;3.31;100.00;97046.41;5033323;28;20497;-75
2023/03/10 22:29:12;;;;;;;1.43;0.90;;;2.80;99.90;;;3.35;100.00;97079.50;5033257;28;20530;-75
2023/03/10 22:31:42;;;;;;;3.93;1.10;;;3.00;99.90;;;3.35;100.00;97064.00;5034676;28;20477;-75
2023/03/10 22:34:11;;;;;;;2.80;1.20;;;2.90;99.90;;;3.38;100.00;97079.16;5035197;28;21005;-75
2023/03/10 22:36:41;;;;;;;1.70;0.90;;;2.90;99.90;;;3.39;100.00;97060.09;5035993;28;20473;-75
2023/03/10 22:39:11;;;;;;;1.20;0.80;;;2.90;99.90;;;3.30;100.00;97068.84;5037714;28;20477;-75
2023/03/10 22:41:40;;;;;;;3.17;1.00;;;2.90;99.90;;;3.28;100.00;97073.38;5034978;28;20975;-75
2023/03/10 22:44:10;;;;;;;1.23;1.13;;;2.80;99.90;;;3.21;100.00;97069.03;5036831;28;20477;-75
2023/03/10 22:46:43;;;;;;;2.70;1.17;;;2.80;99.90;;;3.22;100.00;97094.69;5035544;28;20459;-74
2023/03/10 22:49:13;;;;;;;4.40;1.10;;;2.80;99.90;;;3.19;100.00;97068.41;5034339;28;20509;-75
2023/03/10 22:51:43;;;;;;;5.77;0.90;;;2.70;99.90;;;3.19;100.00;97089.88;5032103;28;20977;-75
2023/03/10 22:54:13;;;;;;;1.27;1.00;;;2.80;99.90;;;3.12;100.00;97088.91;5033433;28;20498;-74
2023/03/10 22:56:43;;;;;;;7.33;1.80;;;2.70;99.90;;;3.16;100.00;97079.84;5033708;28;20466;-75
2023/03/10 22:59:15;;;;;;;1.20;0.90;;;2.80;99.90;;;3.21;100.00;97085.34;5034308;28;21092;-75
2023/03/10 23:01:44;;;;;;;1.97;0.90;;;2.80;99.90;;;3.21;100.00;97085.34;5032652;28;21081;-74
2023/03/10 23:04:14;;;;;;;1.30;1.20;;;2.70;99.90;;;3.19;100.00;97089.88;5032754;28;20470;-74
2023/03/10 23:06:44;;;;;;;1.67;1.00;;;2.70;99.90;;;3.24;100.00;97092.75;5033937;28;21025;-74
2023/03/10 23:09:14;;;;;;;8.57;1.30;;;2.70;99.90;;;3.25;100.00;97083.22;5033384;28;20793;-75
2023/03/10 23:11:44;;;;;;;1.50;1.10;;;2.70;99.90;;;3.28;100.00;97094.03;5031244;28;20824;-75
2023/03/10 23:14:15;;;;;;;3.13;1.00;;;2.80;99.90;;;3.14;100.00;97096.47;5033476;28;21051;-75
2023/03/10 23:16:45;;;;;;;3.13;1.10;;;2.60;99.90;;;3.20;100.00;97094.03;5032582;28;20888;-75
2023/03/10 23:19:16;;;;;;;1.20;1.10;;;2.70;99.90;;;3.14;100.00;97088.72;5034568;28;20469;-75
2023/03/10 23:21:45;;;;;;;2.87;0.80;;;2.70;99.90;;;3.10;100.00;97101.16;5036893;28;20488;-74
2023/03/10 23:24:15;;;;;;;1.10;1.00;;;2.60;99.90;;;3.02;100.00;97104.56;5037349;28;20918;-75
2023/03/10 23:26:45;;;;;;;1.00;0.90;;;2.60;99.90;;;3.03;100.00;97110.53;5035744;28;20473;-75
2023/03/10 23:29:16;;;;;;;5.13;1.00;;;2.60;99.90;;;3.09;100.00;97117.63;5035134;28;20464;-75
2023/03/10 23:31:46;;;;;;;1.37;0.93;;;2.60;99.90;;;3.11;100.00;97126.03;5038447;28;20606;-74
2023/03/10 23:34:16;;;;;;;2.30;1.00;;;2.60;99.90;;;3.01;100.00;97127.97;5037841;28;20464;-75
2023/03/10 23:36:46;;;;;;;2.80;1.57;;;2.50;99.90;;;3.00;100.00;97142.66;5036699;28;20461;-74
2023/03/10 23:39:16;;;;;;;2.40;1.17;;;2.50;99.90;;;2.97;100.00;97137.81;5036142;28;20555;-74
2023/03/10 23:41:46;;;;;;;1.77;1.40;;;2.60;99.90;;;3.01;100.00;97148.63;5035068;28;20464;-75
2023/03/10 23:44:19;;;;;;;2.33;1.10;;;2.60;99.90;;;2.99;100.00;97135.06;5037312;28;20520;-74
2023/03/10 23:46:52;;;;;;;1.63;1.33;;;2.50;99.90;;;2.97;100.00;97132.66;5039869;28;20471;-75
2023/03/10 23:49:22;;;;;;;1.90;1.07;;;2.50;99.90;;;2.93;100.00;97140.88;5037615;28;20517;-75
2023/03/10 23:51:53;;;;;;;2.20;1.10;;;2.50;99.90;;;2.81;100.00;97137.81;5035612;28;20495;-75
2023/03/10 23:54:23;;;;;;;8.30;1.77;;;2.40;99.90;;;2.84;100.00;97131.53;5035484;28;20487;-74
2023/03/10 23:56:53;;;;;;;1.10;0.90;;;2.40;99.90;;;2.75;100.00;97140.22;5035577;28;20518;-75
2023/03/10 23:59:24;;;;;;;5.10;1.30;;;2.40;99.90;;;2.72;100.00;97133.63;5036518;28;20547;-75
